Terminal Aerodrome Forecast
Issued by NWS

Home | Current Version | Previous Version | Text Only | Print | Product List | Glossary On
Versions: 1 2 3 4 5 6 7 8 9 10 11 12 13 14
000
FTUS43 KUNR 271720
TAFGCC
TAF
KGCC 271720Z 2718/2818 VRB05KT P6SM SCT100
     FM272000 04010KT P6SM VCTS BKN080CB
     FM280400 15007KT P6SM BKN080
     FM281000 17011KT 4SM -SHRA OVC050=

USA.gov is the U.S. government's official web portal to all federal, state and local government web resources and services.